createdAt,value
2022-12-01T00:01:07.449Z,15.93
2022-12-01T00:03:34.154Z,16.08
2022-12-01T00:06:05.763Z,16.98
2022-12-01T00:08:33.303Z,17.33
2022-12-01T00:11:11.506Z,18.30
2022-12-01T00:13:38.125Z,17.27
2022-12-01T00:16:14.933Z,17.23
2022-12-01T00:18:42.229Z,17.70
2022-12-01T00:21:16.328Z,17.35
2022-12-01T00:23:47.580Z,16.70
2022-12-01T00:26:18.392Z,17.40
2022-12-01T00:28:49.423Z,17.15
2022-12-01T00:31:16.047Z,17.23
2022-12-01T00:33:42.607Z,19.25
2022-12-01T00:36:09.668Z,18.08
2022-12-01T00:38:36.414Z,17.80
2022-12-01T00:41:03.472Z,18.00
2022-12-01T00:43:30.030Z,17.48
2022-12-01T00:45:56.677Z,16.08
2022-12-01T00:48:23.308Z,16.55
2022-12-01T00:50:53.480Z,15.63
2022-12-01T00:53:20.208Z,16.48
2022-12-01T00:55:46.719Z,17.17
2022-12-01T00:58:13.235Z,15.95
2022-12-01T01:00:39.757Z,17.00
2022-12-01T01:03:07.306Z,16.40
2022-12-01T01:05:42.257Z,17.20
2022-12-01T01:08:10.635Z,17.05
2022-12-01T01:10:45.980Z,17.42
2022-12-01T01:13:13.910Z,17.13
2022-12-01T01:15:41.100Z,18.33
2022-12-01T01:18:07.743Z,17.63
2022-12-01T01:20:34.257Z,17.88
2022-12-01T01:23:00.796Z,18.23
2022-12-01T01:25:27.319Z,18.60
2022-12-01T01:27:53.937Z,18.58
2022-12-01T01:30:21.082Z,18.45
2022-12-01T01:32:47.744Z,19.02
2022-12-01T01:35:14.243Z,19.98
2022-12-01T01:37:40.747Z,19.50
2022-12-01T01:40:07.847Z,21.00
2022-12-01T01:42:34.345Z,20.50
2022-12-01T01:45:00.846Z,20.55
2022-12-01T01:47:33.366Z,22.05
2022-12-01T01:50:03.659Z,21.60
2022-12-01T01:52:30.181Z,20.35
2022-12-01T01:54:56.778Z,21.52
2022-12-01T01:57:28.003Z,21.88
2022-12-01T01:59:59.095Z,20.88
2022-12-01T02:02:25.784Z,19.73
2022-12-01T02:04:56.866Z,20.92
2022-12-01T02:07:23.853Z,20.10
2022-12-01T02:09:50.602Z,19.83
2022-12-01T02:12:38.488Z,20.35
2022-12-01T02:15:23.467Z,19.50
2022-12-01T02:18:03.429Z,20.60
2022-12-01T02:20:43.729Z,19.10
2022-12-01T02:23:20.342Z,18.15
2022-12-01T02:26:14.293Z,19.45
2022-12-01T02:28:57.741Z,19.42
2022-12-01T02:31:44.137Z,18.70
2022-12-01T02:34:24.341Z,18.38
2022-12-01T02:36:58.708Z,17.20
2022-12-01T02:39:29.491Z,18.05
2022-12-01T02:42:04.478Z,17.88
2022-12-01T02:44:37.669Z,17.73
2022-12-01T02:47:10.460Z,17.05
2022-12-01T02:49:41.462Z,18.02
2022-12-01T02:52:08.773Z,16.90
2022-12-01T02:54:35.629Z,17.05
2022-12-01T02:57:02.142Z,18.35
2022-12-01T02:59:28.673Z,17.60
2022-12-01T03:02:06.424Z,18.00
2022-12-01T03:04:42.025Z,16.77
2022-12-01T03:07:42.578Z,16.15
2022-12-01T03:12:37.462Z,16.45
2022-12-01T03:15:18.610Z,16.38
2022-12-01T03:18:01.982Z,16.60
2022-12-01T03:20:39.587Z,16.17
2022-12-01T03:23:09.680Z,16.40
2022-12-01T03:25:38.190Z,15.23
2022-12-01T03:28:21.958Z,15.73
2022-12-01T03:30:51.000Z,15.82
2022-12-01T03:33:24.780Z,14.60
2022-12-01T03:36:00.783Z,15.13
2022-12-01T03:38:28.464Z,14.93
2022-12-01T03:41:08.174Z,14.55
2022-12-01T03:43:38.887Z,13.27
2022-12-01T03:46:46.117Z,14.38
2022-12-01T03:49:14.129Z,14.63
2022-12-01T03:51:48.198Z,13.75
2022-12-01T03:54:53.055Z,14.02
2022-12-01T03:57:37.868Z,14.95
2022-12-01T04:00:05.887Z,14.25
2022-12-01T04:02:32.599Z,14.20
2022-12-01T04:04:59.219Z,14.00
2022-12-01T04:07:25.777Z,13.38
2022-12-01T04:09:52.331Z,13.90
2022-12-01T04:12:18.958Z,13.95
2022-12-01T04:14:58.000Z,14.10
2022-12-01T04:17:25.743Z,14.77
2022-12-01T04:19:52.703Z,14.93
2022-12-01T04:22:19.880Z,14.13
2022-12-01T04:24:46.405Z,14.55
2022-12-01T04:27:13.254Z,14.60
2022-12-01T04:29:39.779Z,14.93
2022-12-01T04:32:06.446Z,13.48
2022-12-01T04:34:33.266Z,13.65
2022-12-01T04:36:59.750Z,12.88
2022-12-01T04:39:26.274Z,12.38
2022-12-01T04:41:53.091Z,12.40
2022-12-01T04:44:19.691Z,12.10
2022-12-01T04:46:46.359Z,11.85
2022-12-01T04:49:12.955Z,12.30
2022-12-01T04:51:39.626Z,12.10
2022-12-01T04:54:06.129Z,12.07
2022-12-01T04:56:32.849Z,12.32
2022-12-01T04:58:59.435Z,12.80
2022-12-01T05:01:26.052Z,12.30
2022-12-01T05:03:52.715Z,12.50
2022-12-01T05:06:21.795Z,12.15
2022-12-01T05:08:48.795Z,11.85
2022-12-01T05:11:15.922Z,12.63
2022-12-01T05:13:44.439Z,12.13
2022-12-01T05:16:16.648Z,12.00
2022-12-01T05:18:43.855Z,13.00
2022-12-01T05:21:11.120Z,12.18
2022-12-01T05:23:38.213Z,12.40
2022-12-01T05:26:09.048Z,13.27
2022-12-01T05:28:36.143Z,12.52
2022-12-01T05:31:03.216Z,13.25
2022-12-01T05:33:30.422Z,12.07
2022-12-01T05:35:57.006Z,13.38
2022-12-01T05:38:23.662Z,12.55
2022-12-01T05:40:51.414Z,13.20
2022-12-01T05:43:18.367Z,12.52
2022-12-01T05:45:44.950Z,12.90
2022-12-01T05:48:11.497Z,13.00
2022-12-01T05:50:39.102Z,13.20
2022-12-01T05:53:06.642Z,12.70
2022-12-01T05:55:34.563Z,12.57
2022-12-01T05:58:01.625Z,12.52
2022-12-01T06:00:28.696Z,13.88
2022-12-01T06:02:55.485Z,12.90
2022-12-01T06:05:21.994Z,13.20
2022-12-01T06:07:48.689Z,12.70
2022-12-01T06:10:15.777Z,12.23
2022-12-01T06:12:42.306Z,12.18
2022-12-01T06:15:10.655Z,12.82
2022-12-01T06:17:40.453Z,11.90
2022-12-01T06:20:08.373Z,11.23
2022-12-01T06:22:34.871Z,11.23
2022-12-01T06:25:01.487Z,10.93
2022-12-01T06:27:28.103Z,10.07
2022-12-01T06:29:54.696Z,10.73
2022-12-01T06:32:21.229Z,10.85
2022-12-01T06:34:47.747Z,10.43
2022-12-01T06:37:14.260Z,11.25
2022-12-01T06:39:41.082Z,11.73
2022-12-01T06:42:07.573Z,11.02
2022-12-01T06:44:34.346Z,11.57
2022-12-01T06:47:00.861Z,11.10
2022-12-01T06:49:27.342Z,12.13
2022-12-01T06:51:53.848Z,11.88
2022-12-01T06:54:20.447Z,12.88
2022-12-01T06:56:46.958Z,12.35
2022-12-01T06:59:16.066Z,13.30
2022-12-01T07:01:43.284Z,13.20
2022-12-01T07:04:09.810Z,13.60
2022-12-01T07:06:36.449Z,12.52
2022-12-01T07:09:02.945Z,12.45
2022-12-01T07:11:29.459Z,13.32
2022-12-01T07:13:56.017Z,12.70
2022-12-01T07:16:22.723Z,12.32
2022-12-01T07:18:49.264Z,12.98
2022-12-01T07:21:15.903Z,12.00
2022-12-01T07:23:43.346Z,12.60
2022-12-01T07:26:15.373Z,12.52
2022-12-01T07:28:43.557Z,12.15
2022-12-01T07:31:16.452Z,11.63
2022-12-01T07:33:49.664Z,11.68
2022-12-01T07:36:16.204Z,11.77
2022-12-01T07:38:42.794Z,11.98
2022-12-01T07:41:11.301Z,11.40
2022-12-01T07:43:38.364Z,12.18
2022-12-01T07:46:07.848Z,12.73
2022-12-01T07:48:35.443Z,11.95
2022-12-01T07:51:02.240Z,12.38
2022-12-01T07:53:28.799Z,11.93
2022-12-01T07:55:55.485Z,12.43
2022-12-01T07:58:22.059Z,11.75
2022-12-01T08:00:48.572Z,12.18
2022-12-01T08:03:15.147Z,11.82
2022-12-01T08:05:41.651Z,11.90
2022-12-01T08:08:08.307Z,11.52
2022-12-01T08:10:35.147Z,12.13
2022-12-01T08:13:01.625Z,10.82
2022-12-01T08:15:28.405Z,11.10
2022-12-01T08:17:55.051Z,10.77
2022-12-01T08:20:24.068Z,11.30
2022-12-01T08:22:50.813Z,10.68
2022-12-01T08:25:17.344Z,11.50
2022-12-01T08:27:44.037Z,10.93
2022-12-01T08:30:10.941Z,11.27
2022-12-01T08:32:37.494Z,10.75
2022-12-01T08:35:04.250Z,10.73
2022-12-01T08:37:30.826Z,10.68
2022-12-01T08:39:57.306Z,10.40
2022-12-01T08:42:24.082Z,10.57
2022-12-01T08:44:53.851Z,10.68
2022-12-01T08:47:22.036Z,10.43
2022-12-01T08:49:48.787Z,9.98
2022-12-01T08:52:15.391Z,9.68
2022-12-01T08:54:41.931Z,10.35
2022-12-01T08:57:08.458Z,9.90
2022-12-01T08:59:35.050Z,10.23
2022-12-01T09:02:06.806Z,10.40
2022-12-01T09:04:33.834Z,9.82
2022-12-01T09:07:00.325Z,10.40
2022-12-01T09:09:28.783Z,10.20
2022-12-01T09:11:55.899Z,9.93
2022-12-01T09:14:23.144Z,9.93
2022-12-01T09:16:50.548Z,9.75
2022-12-01T09:19:24.035Z,8.82
2022-12-01T09:21:51.762Z,8.70
2022-12-01T09:24:18.398Z,9.00
2022-12-01T09:26:44.929Z,8.77
2022-12-01T09:29:13.683Z,8.32
2022-12-01T09:31:40.888Z,8.50
2022-12-01T09:34:12.213Z,9.07
2022-12-01T09:36:39.004Z,8.88
2022-12-01T09:39:07.240Z,9.02
2022-12-01T09:41:49.121Z,8.73
2022-12-01T09:44:23.135Z,9.15
2022-12-01T09:46:54.796Z,9.10
2022-12-01T09:49:30.364Z,9.40
2022-12-01T09:51:59.800Z,9.10
2022-12-01T09:54:28.721Z,9.57
2022-12-01T09:56:55.617Z,9.68
2022-12-01T09:59:24.929Z,10.45
2022-12-01T10:01:55.325Z,10.00
2022-12-01T10:07:18.287Z,10.38
2022-12-01T10:12:18.176Z,9.87
2022-12-01T10:14:48.643Z,9.80
2022-12-01T10:17:27.852Z,9.25
2022-12-01T10:20:23.549Z,9.50
2022-12-01T10:23:12.737Z,10.68
2022-12-01T10:25:56.311Z,9.85
2022-12-01T10:28:34.775Z,9.88
2022-12-01T10:31:14.287Z,9.88
2022-12-01T10:33:51.365Z,9.77
2022-12-01T10:36:17.934Z,10.45
2022-12-01T10:38:44.626Z,10.02
2022-12-01T10:41:14.578Z,9.88
2022-12-01T10:43:44.723Z,10.23
2022-12-01T10:46:40.444Z,11.27
2022-12-01T10:49:09.731Z,11.10
2022-12-01T10:51:57.054Z,11.00
2022-12-01T10:54:32.765Z,11.48
2022-12-01T10:56:59.732Z,10.90
2022-12-01T10:59:33.326Z,11.73
2022-12-01T11:02:01.368Z,12.07
2022-12-01T11:04:43.734Z,12.27
2022-12-01T11:07:16.350Z,12.20
2022-12-01T11:09:45.405Z,12.07
2022-12-01T11:12:16.923Z,12.18
2022-12-01T11:14:50.895Z,12.27
2022-12-01T11:17:40.688Z,12.65
2022-12-01T11:20:32.209Z,12.50
2022-12-01T11:23:20.413Z,12.80
2022-12-01T11:26:15.517Z,12.68
2022-12-01T11:28:54.930Z,11.82
2022-12-01T11:31:24.360Z,11.95
2022-12-01T11:33:55.262Z,12.60
2022-12-01T11:36:30.701Z,12.63
2022-12-01T11:39:01.627Z,12.95
2022-12-01T11:41:32.940Z,12.63
2022-12-01T11:44:02.173Z,12.88
2022-12-01T11:46:36.345Z,12.23
2022-12-01T11:49:03.811Z,12.90
2022-12-01T11:51:32.636Z,13.38
2022-12-01T11:54:11.485Z,13.00
2022-12-01T11:56:38.197Z,12.63
2022-12-01T11:59:17.546Z,13.43
2022-12-01T12:01:47.038Z,13.43
2022-12-01T12:04:29.650Z,12.93
2022-12-01T12:07:21.121Z,12.95
2022-12-01T12:10:11.014Z,12.32
2022-12-01T12:12:50.084Z,13.20
2022-12-01T12:16:04.891Z,13.30
2022-12-01T12:18:59.090Z,13.63
2022-12-01T12:21:38.537Z,13.63
2022-12-01T12:24:21.165Z,13.55
2022-12-01T12:26:56.550Z,12.57
2022-12-01T12:29:38.709Z,13.57
2022-12-01T12:32:14.379Z,13.07
2022-12-01T12:34:49.046Z,13.98
2022-12-01T12:37:24.990Z,13.57
2022-12-01T12:40:26.946Z,13.80
2022-12-01T12:43:34.853Z,13.32
2022-12-01T12:46:04.519Z,14.15
2022-12-01T12:49:18.786Z,13.32
2022-12-01T12:51:54.608Z,13.40
2022-12-01T12:54:32.505Z,13.90
2022-12-01T12:57:03.323Z,12.88
2022-12-01T12:59:47.038Z,13.00
2022-12-01T13:02:32.171Z,12.80
2022-12-01T13:05:02.947Z,12.50
2022-12-01T13:07:34.208Z,12.68
2022-12-01T13:10:09.240Z,12.45
2022-12-01T13:12:40.418Z,13.75
2022-12-01T13:15:15.615Z,13.20
2022-12-01T13:17:45.657Z,12.88
2022-12-01T13:20:17.943Z,12.77
2022-12-01T13:22:45.222Z,13.20
2022-12-01T13:25:25.601Z,11.90
2022-12-01T13:30:24.233Z,12.95
2022-12-01T13:32:58.552Z,12.82
2022-12-01T13:35:31.780Z,12.65
2022-12-01T13:38:32.036Z,12.82
2022-12-01T13:41:36.538Z,12.77
2022-12-01T13:44:08.598Z,14.25
2022-12-01T13:46:44.206Z,12.77
2022-12-01T13:49:33.535Z,13.40
2022-12-01T13:52:21.652Z,13.10
2022-12-01T13:55:07.067Z,12.98
2022-12-01T13:57:36.223Z,13.43
2022-12-01T14:00:02.937Z,12.70
2022-12-01T14:02:38.520Z,13.65
2022-12-01T14:05:40.765Z,13.48
2022-12-01T14:08:24.396Z,13.27
2022-12-01T14:10:54.135Z,12.82
2022-12-01T14:13:21.298Z,14.13
2022-12-01T14:15:55.177Z,14.25
2022-12-01T14:18:21.633Z,13.60
2022-12-01T14:20:48.760Z,13.77
2022-12-01T14:24:02.063Z,13.73
2022-12-01T14:26:31.063Z,14.45
2022-12-01T14:29:09.506Z,14.43
2022-12-01T14:31:36.465Z,14.30
2022-12-01T14:34:23.345Z,14.38
2022-12-01T14:37:14.038Z,13.52
2022-12-01T14:39:45.043Z,13.02
2022-12-01T14:42:11.514Z,13.40
2022-12-01T14:44:44.650Z,14.88
2022-12-01T14:47:11.089Z,15.35
2022-12-01T14:49:42.345Z,14.90
2022-12-01T14:52:26.400Z,14.80
2022-12-01T14:54:55.442Z,14.65
2022-12-01T14:57:25.889Z,13.65
2022-12-01T15:00:04.483Z,14.90
2022-12-01T15:02:31.135Z,15.25
2022-12-01T15:05:15.774Z,15.00
2022-12-01T15:07:46.084Z,12.95
2022-12-01T15:10:20.137Z,13.30
2022-12-01T15:12:47.591Z,14.85
2022-12-01T15:15:23.683Z,14.95
2022-12-01T15:17:52.098Z,14.43
2022-12-01T15:20:36.996Z,14.98
2022-12-01T15:23:14.390Z,16.17
2022-12-01T15:25:45.116Z,15.32
2022-12-01T15:28:32.775Z,15.80
2022-12-01T15:31:00.472Z,14.65
2022-12-01T15:33:36.585Z,16.17
2022-12-01T15:36:04.278Z,15.65
2022-12-01T15:38:35.852Z,15.00
2022-12-01T15:43:56.217Z,15.40
2022-12-01T15:46:31.550Z,15.02
2022-12-01T15:49:09.100Z,15.88
2022-12-01T15:51:35.826Z,15.18
2022-12-01T15:54:02.874Z,14.80
2022-12-01T15:56:38.237Z,15.07
2022-12-01T15:59:13.986Z,15.80
2022-12-01T16:01:42.265Z,16.52
2022-12-01T16:04:29.669Z,16.40
2022-12-01T16:07:05.884Z,15.52
2022-12-01T16:09:38.430Z,15.57
2022-12-01T16:12:16.909Z,16.65
2022-12-01T16:15:01.398Z,16.10
2022-12-01T16:17:42.048Z,16.58
2022-12-01T16:22:47.337Z,15.80
2022-12-01T16:25:28.673Z,15.82
2022-12-01T16:27:56.639Z,15.75
2022-12-01T16:30:26.047Z,16.70
2022-12-01T16:33:00.875Z,16.65
2022-12-01T16:35:29.606Z,17.20
2022-12-01T16:37:57.333Z,16.42
2022-12-01T16:40:24.838Z,17.42
2022-12-01T16:42:51.550Z,17.80
2022-12-01T16:45:19.010Z,18.27
2022-12-01T16:47:46.983Z,17.92
2022-12-01T16:50:18.197Z,18.35
2022-12-01T16:52:45.542Z,18.92
2022-12-01T16:55:24.505Z,18.42
2022-12-01T16:57:51.196Z,19.20
2022-12-01T17:00:18.070Z,18.92
2022-12-01T17:02:44.753Z,19.65
2022-12-01T17:05:11.558Z,19.23
2022-12-01T17:07:38.342Z,19.42
2022-12-01T17:10:07.720Z,18.02
2022-12-01T17:12:34.238Z,18.98
2022-12-01T17:15:00.774Z,18.95
2022-12-01T17:17:28.786Z,18.40
2022-12-01T17:19:55.618Z,18.45
2022-12-01T17:22:22.162Z,19.67
2022-12-01T17:24:49.173Z,19.52
2022-12-01T17:27:16.091Z,19.08
2022-12-01T17:29:46.042Z,19.00
2022-12-01T17:34:39.943Z,18.73
2022-12-01T17:37:06.655Z,19.23
2022-12-01T17:39:33.246Z,22.30
2022-12-01T17:41:59.804Z,20.10
2022-12-01T17:44:26.348Z,19.88
2022-12-01T17:46:52.945Z,20.30
2022-12-01T17:49:19.585Z,19.75
2022-12-01T17:51:46.173Z,20.00
2022-12-01T17:54:12.803Z,20.02
2022-12-01T17:56:39.338Z,20.10
2022-12-01T17:59:05.932Z,19.23
2022-12-01T18:01:32.700Z,20.33
2022-12-01T18:03:59.319Z,19.40
2022-12-01T18:06:26.208Z,20.38
2022-12-01T18:08:53.110Z,19.55
2022-12-01T18:11:19.845Z,19.23
2022-12-01T18:13:48.469Z,18.90
2022-12-01T18:16:18.413Z,18.70
2022-12-01T18:18:45.779Z,20.13
2022-12-01T18:21:13.963Z,19.65
2022-12-01T18:23:40.889Z,19.30
2022-12-01T18:26:15.735Z,20.05
2022-12-01T18:28:43.261Z,19.58
2022-12-01T18:31:12.869Z,18.55
2022-12-01T18:33:41.600Z,19.45
2022-12-01T18:36:13.874Z,19.63
2022-12-01T18:38:41.078Z,18.95
2022-12-01T18:41:08.082Z,20.08
2022-12-01T18:43:34.822Z,18.45
2022-12-01T18:46:03.313Z,19.05
2022-12-01T18:48:37.875Z,19.27
2022-12-01T18:51:05.993Z,21.15
2022-12-01T18:53:35.064Z,19.42
2022-12-01T18:56:03.339Z,18.98
2022-12-01T18:58:57.923Z,19.15
2022-12-01T19:01:36.035Z,19.92
2022-12-01T19:04:03.094Z,19.10
2022-12-01T19:06:30.077Z,18.08
2022-12-01T19:08:59.542Z,19.90
2022-12-01T19:11:26.083Z,20.42
2022-12-01T19:13:52.559Z,21.17
2022-12-01T19:16:19.805Z,19.70
2022-12-01T19:18:46.695Z,19.55
2022-12-01T19:21:16.017Z,18.40
2022-12-01T19:23:43.078Z,22.05
2022-12-01T19:26:15.541Z,19.48
2022-12-01T19:28:42.411Z,18.15
2022-12-01T19:31:10.668Z,20.05
2022-12-01T19:33:37.208Z,18.85
2022-12-01T19:36:09.309Z,18.33
2022-12-01T19:38:36.022Z,19.20
2022-12-01T19:41:03.395Z,18.80
2022-12-01T19:43:29.957Z,20.08
2022-12-01T19:45:56.545Z,20.27
2022-12-01T19:48:23.217Z,18.88
2022-12-01T19:50:49.758Z,19.15
2022-12-01T19:53:16.293Z,19.20
2022-12-01T19:55:43.056Z,18.52
2022-12-01T19:58:09.569Z,19.58
2022-12-01T20:00:36.251Z,18.65
2022-12-01T20:03:02.804Z,18.95
2022-12-01T20:05:29.378Z,18.50
2022-12-01T20:07:56.006Z,19.75
2022-12-01T20:10:22.560Z,19.70
2022-12-01T20:12:50.014Z,33.70
2022-12-01T20:15:16.982Z,19.95
2022-12-01T20:17:43.690Z,18.25
2022-12-01T20:20:11.627Z,18.75
2022-12-01T20:22:38.365Z,17.73
2022-12-01T20:25:05.728Z,19.10
2022-12-01T20:27:32.589Z,18.60
2022-12-01T20:29:59.237Z,17.85
2022-12-01T20:32:25.864Z,18.25
2022-12-01T20:34:55.206Z,19.15
2022-12-01T20:37:25.472Z,18.52
2022-12-01T20:42:18.645Z,17.90
2022-12-01T20:44:45.146Z,18.80
2022-12-01T20:47:14.214Z,18.38
2022-12-01T20:49:40.805Z,18.98
2022-12-01T20:52:07.407Z,19.27
2022-12-01T20:54:33.995Z,17.98
2022-12-01T20:57:00.541Z,20.13
2022-12-01T20:59:27.979Z,20.15
2022-12-01T21:01:54.815Z,18.48
2022-12-01T21:04:21.376Z,18.13
2022-12-01T21:06:47.940Z,18.83
2022-12-01T21:09:14.445Z,21.15
2022-12-01T21:11:49.670Z,18.90
2022-12-01T21:14:20.065Z,19.08
2022-12-01T21:16:47.654Z,19.15
2022-12-01T21:19:18.201Z,19.70
2022-12-01T21:24:14.451Z,17.67
2022-12-01T21:26:42.909Z,18.90
2022-12-01T21:29:23.682Z,18.40
2022-12-01T21:31:53.340Z,18.48
2022-12-01T21:34:27.936Z,17.80
2022-12-01T21:36:56.465Z,18.20
2022-12-01T21:39:25.004Z,18.80
2022-12-01T21:41:55.425Z,17.80
2022-12-01T21:44:23.162Z,19.53
2022-12-01T21:46:56.525Z,17.27
2022-12-01T21:49:32.645Z,18.17
2022-12-01T21:51:59.183Z,17.33
2022-12-01T21:54:25.695Z,17.65
2022-12-01T21:56:55.106Z,17.60
2022-12-01T21:59:22.989Z,17.63
2022-12-01T22:01:53.924Z,17.58
2022-12-01T22:04:30.645Z,17.70
2022-12-01T22:06:57.925Z,17.45
2022-12-01T22:09:31.254Z,17.70
2022-12-01T22:12:01.951Z,17.50
2022-12-01T22:14:37.831Z,17.40
2022-12-01T22:17:07.332Z,17.08
2022-12-01T22:19:37.101Z,17.05
2022-12-01T22:22:23.379Z,17.63
2022-12-01T22:24:52.675Z,16.58
2022-12-01T22:27:28.947Z,16.98
2022-12-01T22:30:05.826Z,16.40
2022-12-01T22:32:35.247Z,16.08
2022-12-01T22:35:17.745Z,16.08
2022-12-01T22:37:46.421Z,17.17
2022-12-01T22:41:01.877Z,15.77
2022-12-01T22:43:48.493Z,16.13
2022-12-01T22:46:27.242Z,16.38
2022-12-01T22:48:56.660Z,16.30
2022-12-01T22:51:30.795Z,15.02
2022-12-01T22:54:00.587Z,15.70
2022-12-01T22:56:39.853Z,14.98
2022-12-01T22:59:16.672Z,15.45
2022-12-01T23:01:59.841Z,14.93
2022-12-01T23:04:51.278Z,15.52
2022-12-01T23:07:35.248Z,15.18
2022-12-01T23:10:16.722Z,14.95
2022-12-01T23:12:45.117Z,14.82
2022-12-01T23:15:33.738Z,14.63
2022-12-01T23:18:29.447Z,14.50
2022-12-01T23:21:05.138Z,14.50
2022-12-01T23:23:36.936Z,16.27
2022-12-01T23:26:08.569Z,15.88
2022-12-01T23:28:35.958Z,15.45
2022-12-01T23:31:02.732Z,15.23
2022-12-01T23:33:31.790Z,16.08
2022-12-01T23:36:09.001Z,15.95
2022-12-01T23:38:42.525Z,15.93
2022-12-01T23:41:25.868Z,15.57
2022-12-01T23:43:54.231Z,15.43
2022-12-01T23:46:23.563Z,16.70
2022-12-01T23:48:59.339Z,15.85
2022-12-01T23:51:40.322Z,16.25
2022-12-01T23:54:17.651Z,16.40
2022-12-01T23:56:54.735Z,15.95
2022-12-01T23:59:32.222Z,15.32
